createdAt,value
2023-03-19T00:01:06.926Z,9.20
2023-03-19T00:03:35.283Z,9.20
2023-03-19T00:06:04.128Z,9.20
2023-03-19T00:08:32.015Z,9.20
2023-03-19T00:10:59.258Z,9.20
2023-03-19T00:13:26.772Z,9.10
2023-03-19T00:15:56.024Z,9.20
2023-03-19T00:18:23.263Z,9.10
2023-03-19T00:20:50.902Z,9.10
2023-03-19T00:23:18.839Z,9.20
2023-03-19T00:25:46.393Z,9.10
2023-03-19T00:28:14.570Z,9.30
2023-03-19T00:30:46.810Z,9.10
2023-03-19T00:33:14.982Z,8.60
2023-03-19T00:35:42.351Z,8.20
2023-03-19T00:38:10.104Z,8.30
2023-03-19T00:40:38.537Z,8.20
2023-03-19T00:43:06.485Z,8.30
2023-03-19T00:45:35.448Z,8.30
2023-03-19T00:48:04.010Z,8.60
2023-03-19T00:50:31.319Z,8.60
2023-03-19T00:52:59.259Z,8.70
2023-03-19T00:55:27.548Z,8.70
2023-03-19T00:57:54.812Z,8.60
2023-03-19T01:00:22.903Z,8.80
2023-03-19T01:02:50.252Z,8.80
2023-03-19T01:05:17.746Z,8.90
2023-03-19T01:07:45.244Z,8.90
2023-03-19T01:10:12.813Z,8.90
2023-03-19T01:12:40.543Z,9.00
2023-03-19T01:15:08.977Z,8.90
2023-03-19T01:17:37.090Z,9.00
2023-03-19T01:22:31.173Z,8.90
2023-03-19T01:25:00.863Z,8.50
2023-03-19T01:27:28.489Z,8.20
2023-03-19T01:29:56.464Z,8.00
2023-03-19T01:32:43.752Z,8.00
2023-03-19T01:35:26.228Z,7.90
2023-03-19T01:37:53.656Z,8.00
2023-03-19T01:40:22.193Z,8.10
2023-03-19T01:43:21.311Z,8.10
2023-03-19T01:46:07.640Z,8.30
2023-03-19T01:49:14.262Z,8.60
2023-03-19T01:51:48.466Z,8.60
2023-03-19T01:54:36.663Z,8.60
2023-03-19T01:57:36.624Z,8.70
2023-03-19T02:00:23.084Z,8.40
2023-03-19T02:02:56.793Z,8.30
2023-03-19T02:05:41.595Z,8.10
2023-03-19T02:08:15.555Z,8.10
2023-03-19T02:10:44.875Z,8.10
2023-03-19T02:13:12.506Z,8.30
2023-03-19T02:15:45.730Z,8.40
2023-03-19T02:18:13.548Z,8.30
2023-03-19T02:20:57.554Z,8.50
2023-03-19T02:24:08.008Z,8.50
2023-03-19T02:26:56.967Z,8.50
2023-03-19T02:29:25.289Z,8.40
2023-03-19T02:31:53.396Z,8.50
2023-03-19T02:34:21.571Z,8.50
2023-03-19T02:36:57.966Z,8.60
2023-03-19T02:39:36.477Z,8.70
2023-03-19T02:42:04.525Z,8.70
2023-03-19T02:44:32.174Z,8.80
2023-03-19T02:46:59.894Z,8.80
2023-03-19T02:49:27.485Z,8.80
2023-03-19T02:51:54.852Z,8.80
2023-03-19T02:54:22.787Z,8.80
2023-03-19T02:56:52.425Z,8.70
2023-03-19T02:59:21.232Z,8.60
2023-03-19T03:01:49.039Z,8.60
2023-03-19T03:04:16.890Z,8.60
2023-03-19T03:06:45.055Z,8.70
2023-03-19T03:09:13.719Z,8.70
2023-03-19T03:11:41.895Z,8.80
2023-03-19T03:14:09.753Z,8.80
2023-03-19T03:16:38.229Z,8.70
2023-03-19T03:19:06.106Z,8.70
2023-03-19T03:21:35.586Z,8.60
2023-03-19T03:24:03.743Z,8.50
2023-03-19T03:26:32.652Z,8.40
2023-03-19T03:29:00.348Z,8.40
2023-03-19T03:31:28.598Z,8.40
2023-03-19T03:33:55.898Z,8.50
2023-03-19T03:36:23.797Z,8.60
2023-03-19T03:38:51.258Z,8.60
2023-03-19T03:41:19.592Z,8.60
2023-03-19T03:43:47.400Z,8.60
2023-03-19T03:46:14.879Z,8.40
2023-03-19T03:48:42.278Z,8.40
2023-03-19T03:51:09.590Z,8.10
2023-03-19T03:53:37.190Z,7.80
2023-03-19T03:56:06.504Z,7.80
2023-03-19T03:58:33.975Z,7.80
2023-03-19T04:01:02.053Z,7.90
2023-03-19T04:03:30.957Z,7.90
2023-03-19T04:05:58.514Z,8.10
2023-03-19T04:08:26.849Z,8.10
2023-03-19T04:10:54.062Z,8.10
2023-03-19T04:13:21.783Z,8.00
2023-03-19T04:15:51.815Z,7.70
2023-03-19T04:18:19.700Z,7.40
2023-03-19T04:20:47.965Z,7.40
2023-03-19T04:23:15.374Z,7.50
2023-03-19T04:25:42.605Z,7.50
2023-03-19T04:28:10.957Z,7.60
2023-03-19T04:30:44.061Z,7.80
2023-03-19T04:33:13.310Z,7.90
2023-03-19T04:35:40.722Z,7.50
2023-03-19T04:38:08.336Z,7.60
2023-03-19T04:40:36.329Z,7.40
2023-03-19T04:43:03.951Z,7.50
2023-03-19T04:45:33.771Z,7.50
2023-03-19T04:48:01.839Z,7.60
2023-03-19T04:50:32.152Z,7.70
2023-03-19T04:53:00.871Z,7.80
2023-03-19T04:55:28.436Z,7.90
2023-03-19T04:58:12.536Z,7.90
2023-03-19T05:00:48.359Z,8.10
2023-03-19T05:03:21.796Z,8.10
2023-03-19T05:05:49.730Z,8.20
2023-03-19T05:08:17.073Z,8.00
2023-03-19T05:10:44.407Z,8.20
2023-03-19T05:13:12.087Z,8.20
2023-03-19T05:15:48.164Z,8.30
2023-03-19T05:18:16.793Z,8.30
2023-03-19T05:20:45.693Z,8.20
2023-03-19T05:23:23.209Z,8.10
2023-03-19T05:26:01.851Z,7.90
2023-03-19T05:28:49.425Z,8.00
2023-03-19T05:31:21.128Z,8.00
2023-03-19T05:33:52.851Z,8.10
2023-03-19T05:36:20.388Z,8.10
2023-03-19T05:38:56.121Z,8.10
2023-03-19T05:41:33.449Z,8.10
2023-03-19T05:44:05.231Z,8.20
2023-03-19T05:46:56.338Z,8.10
2023-03-19T05:49:26.634Z,8.20
2023-03-19T05:51:53.955Z,8.10
2023-03-19T05:54:21.642Z,8.10
2023-03-19T05:57:13.032Z,8.10
2023-03-19T05:59:53.635Z,8.30
2023-03-19T06:02:27.600Z,8.40
2023-03-19T06:05:09.851Z,8.60
2023-03-19T06:07:37.763Z,8.50
2023-03-19T06:10:10.385Z,8.60
2023-03-19T06:12:38.352Z,8.60
2023-03-19T06:15:35.812Z,8.80
2023-03-19T06:18:04.325Z,9.00
2023-03-19T06:20:32.394Z,9.00
2023-03-19T06:23:00.068Z,9.10
2023-03-19T06:25:27.999Z,9.30
2023-03-19T06:27:55.488Z,9.30
2023-03-19T06:30:32.054Z,9.40
2023-03-19T06:33:01.789Z,9.30
2023-03-19T06:36:02.582Z,9.40
2023-03-19T06:38:53.914Z,9.40
2023-03-19T06:42:08.043Z,9.50
2023-03-19T06:45:15.862Z,9.50
2023-03-19T06:47:56.430Z,9.70
2023-03-19T06:50:23.924Z,9.80
2023-03-19T06:52:51.231Z,9.90
2023-03-19T06:55:20.858Z,9.90
2023-03-19T06:57:51.757Z,10.00
2023-03-19T07:00:20.141Z,10.20
2023-03-19T07:02:47.777Z,10.30
2023-03-19T07:05:15.567Z,10.40
2023-03-19T07:07:43.922Z,10.50
2023-03-19T07:10:29.746Z,10.60
2023-03-19T07:12:57.072Z,10.70
2023-03-19T07:15:24.480Z,10.70
2023-03-19T07:17:53.312Z,11.00
2023-03-19T07:20:20.989Z,11.10
2023-03-19T07:22:51.367Z,11.20
2023-03-19T07:25:21.270Z,11.30
2023-03-19T07:27:48.683Z,11.50
2023-03-19T07:30:17.337Z,11.70
2023-03-19T07:32:44.824Z,11.80
2023-03-19T07:35:12.457Z,12.00
2023-03-19T07:37:41.920Z,12.10
2023-03-19T07:40:10.997Z,12.10
2023-03-19T07:42:38.733Z,12.30
2023-03-19T07:45:08.668Z,12.50
2023-03-19T07:47:39.692Z,12.70
2023-03-19T07:50:09.042Z,12.80
2023-03-19T07:52:36.718Z,12.80
2023-03-19T07:55:06.449Z,12.70
2023-03-19T07:57:34.079Z,12.70
2023-03-19T08:00:01.778Z,12.70
2023-03-19T08:02:29.448Z,12.60
2023-03-19T08:04:57.050Z,12.80
2023-03-19T08:07:25.653Z,13.10
2023-03-19T08:09:53.513Z,13.20
2023-03-19T08:12:21.456Z,13.40
2023-03-19T08:14:48.863Z,13.70
2023-03-19T08:17:16.814Z,13.80
2023-03-19T08:19:44.538Z,14.00
2023-03-19T08:22:11.895Z,14.20
2023-03-19T08:24:39.876Z,14.20
2023-03-19T08:27:08.255Z,14.30
2023-03-19T08:29:35.640Z,14.40
2023-03-19T08:32:03.281Z,14.40
2023-03-19T08:34:31.384Z,14.30
2023-03-19T08:36:58.616Z,14.40
2023-03-19T08:39:26.115Z,14.40
2023-03-19T08:41:53.854Z,14.40
2023-03-19T08:44:21.233Z,14.40
2023-03-19T08:46:48.622Z,14.40
2023-03-19T08:49:16.179Z,14.60
2023-03-19T08:51:43.531Z,14.70
2023-03-19T08:54:11.530Z,14.60
2023-03-19T08:56:39.700Z,14.70
2023-03-19T08:59:07.450Z,14.80
2023-03-19T09:01:34.890Z,14.80
2023-03-19T09:04:02.453Z,14.90
2023-03-19T09:06:30.638Z,14.90
2023-03-19T09:08:58.050Z,14.90
2023-03-19T09:11:26.082Z,14.90
2023-03-19T09:13:53.804Z,15.00
2023-03-19T09:16:21.652Z,15.10
2023-03-19T09:18:49.407Z,15.30
2023-03-19T09:21:16.682Z,15.40
2023-03-19T09:23:44.406Z,15.60
2023-03-19T09:26:12.348Z,15.80
2023-03-19T09:28:39.741Z,16.00
2023-03-19T09:31:11.756Z,16.10
2023-03-19T09:33:39.582Z,16.30
2023-03-19T09:36:07.279Z,16.40
2023-03-19T09:38:35.664Z,16.50
2023-03-19T09:41:29.726Z,16.60
2023-03-19T09:44:02.245Z,16.60
2023-03-19T09:46:43.726Z,16.60
2023-03-19T09:49:26.816Z,16.70
2023-03-19T09:51:57.339Z,16.80
2023-03-19T09:54:30.995Z,16.70
2023-03-19T09:56:58.726Z,16.70
2023-03-19T09:59:28.500Z,16.80
2023-03-19T10:02:17.179Z,16.70
2023-03-19T10:05:07.949Z,16.70
2023-03-19T10:08:06.729Z,16.60
2023-03-19T10:10:48.578Z,16.60
2023-03-19T10:13:21.088Z,16.60
2023-03-19T10:15:53.908Z,16.70
2023-03-19T10:18:35.702Z,16.70
2023-03-19T10:21:12.545Z,16.70
2023-03-19T10:23:46.973Z,16.70
2023-03-19T10:26:17.726Z,16.70
2023-03-19T10:28:51.482Z,16.80
2023-03-19T10:31:26.619Z,16.70
2023-03-19T10:34:18.316Z,16.60
2023-03-19T10:36:45.581Z,16.40
2023-03-19T10:39:17.362Z,16.60
2023-03-19T10:41:51.971Z,16.70
2023-03-19T10:44:32.769Z,16.80
2023-03-19T10:47:10.652Z,16.80
2023-03-19T10:49:38.492Z,16.80
2023-03-19T10:52:10.491Z,16.90
2023-03-19T10:54:40.749Z,17.00
2023-03-19T10:57:26.958Z,17.10
2023-03-19T10:59:55.375Z,17.20
2023-03-19T11:02:31.344Z,17.20
2023-03-19T11:05:24.723Z,17.20
2023-03-19T11:08:05.345Z,17.30
2023-03-19T11:10:36.083Z,17.40
2023-03-19T11:13:21.758Z,17.50
2023-03-19T11:15:50.947Z,17.70
2023-03-19T11:18:39.421Z,17.80
2023-03-19T11:21:21.436Z,17.90
2023-03-19T11:23:54.032Z,18.00
2023-03-19T11:26:28.606Z,18.10
2023-03-19T11:29:03.553Z,18.20
2023-03-19T11:32:21.110Z,18.30
2023-03-19T11:35:22.167Z,18.40
2023-03-19T11:37:57.611Z,18.50
2023-03-19T11:40:28.060Z,18.60
2023-03-19T11:43:28.875Z,18.50
2023-03-19T11:46:08.772Z,18.10
2023-03-19T11:48:41.980Z,18.00
2023-03-19T11:51:33.110Z,18.00
2023-03-19T11:54:05.370Z,17.90
2023-03-19T11:57:06.821Z,17.80
2023-03-19T12:00:15.875Z,17.90
2023-03-19T12:02:55.909Z,17.90
2023-03-19T12:05:34.499Z,17.70
2023-03-19T12:08:20.981Z,17.80
2023-03-19T12:11:12.977Z,17.90
2023-03-19T12:18:05.067Z,18.10
2023-03-19T12:21:00.767Z,18.10
2023-03-19T12:23:48.692Z,18.10
2023-03-19T12:26:49.682Z,18.10
2023-03-19T12:29:38.326Z,18.10
2023-03-19T12:32:27.465Z,18.10
2023-03-19T12:35:28.657Z,18.00
2023-03-19T12:38:04.777Z,18.10
2023-03-19T12:40:51.894Z,18.10
2023-03-19T12:43:44.309Z,18.10
2023-03-19T12:54:05.081Z,18.20
2023-03-19T12:56:53.609Z,18.20
2023-03-19T12:59:24.037Z,18.40
2023-03-19T13:02:02.130Z,18.40
2023-03-19T13:04:40.755Z,18.30
2023-03-19T13:07:23.587Z,18.60
2023-03-19T13:10:04.546Z,18.70
2023-03-19T13:12:35.588Z,18.80
2023-03-19T13:15:10.802Z,18.90
2023-03-19T13:18:31.139Z,19.00
2023-03-19T13:21:28.449Z,19.10
2023-03-19T13:24:05.892Z,19.40
2023-03-19T13:26:35.034Z,19.50
2023-03-19T13:29:16.467Z,19.60
2023-03-19T13:31:43.944Z,19.80
2023-03-19T13:34:17.659Z,19.80
2023-03-19T13:37:13.932Z,19.90
2023-03-19T13:39:42.946Z,19.90
2023-03-19T13:42:34.684Z,19.80
2023-03-19T13:45:26.664Z,19.90
2023-03-19T13:47:54.930Z,20.00
2023-03-19T13:50:29.463Z,19.90
2023-03-19T13:53:33.892Z,19.90
2023-03-19T13:56:22.481Z,19.60
2023-03-19T13:59:28.803Z,19.20
2023-03-19T14:01:57.888Z,19.20
2023-03-19T14:04:28.100Z,18.80
2023-03-19T14:07:15.158Z,18.70
2023-03-19T14:09:50.906Z,18.90
2023-03-19T14:12:18.999Z,18.80
2023-03-19T14:14:54.787Z,18.70
2023-03-19T14:17:32.918Z,18.50
2023-03-19T14:20:17.261Z,18.70
2023-03-19T14:23:09.228Z,18.60
2023-03-19T14:25:58.778Z,18.50
2023-03-19T14:28:44.951Z,18.60
2023-03-19T14:31:33.457Z,18.70
2023-03-19T14:34:11.067Z,18.60
2023-03-19T14:36:44.354Z,18.60
2023-03-19T14:39:31.523Z,18.60
2023-03-19T14:42:13.282Z,18.30
2023-03-19T14:45:18.196Z,18.20
2023-03-19T14:47:57.070Z,18.10
2023-03-19T14:50:41.752Z,18.10
2023-03-19T14:53:24.713Z,18.20
2023-03-19T14:55:53.534Z,18.40
2023-03-19T14:58:22.096Z,18.50
2023-03-19T15:00:55.716Z,18.40
2023-03-19T15:03:37.175Z,18.40
2023-03-19T15:06:08.015Z,18.50
2023-03-19T15:08:39.251Z,18.60
2023-03-19T15:11:16.494Z,18.90
2023-03-19T15:14:14.982Z,18.90
2023-03-19T15:16:48.173Z,18.80
2023-03-19T15:19:22.884Z,19.10
2023-03-19T15:21:50.712Z,19.10
2023-03-19T15:24:18.516Z,19.50
2023-03-19T15:26:47.021Z,19.90
2023-03-19T15:29:16.054Z,20.20
2023-03-19T15:32:02.474Z,20.60
2023-03-19T15:34:31.920Z,21.10
2023-03-19T15:37:04.727Z,21.30
2023-03-19T15:39:37.280Z,21.30
2023-03-19T15:42:06.053Z,21.50
2023-03-19T15:44:43.337Z,21.50
2023-03-19T15:47:20.399Z,21.10
2023-03-19T15:49:57.530Z,21.10
2023-03-19T15:52:26.726Z,20.70
2023-03-19T15:54:56.126Z,20.90
2023-03-19T15:57:25.213Z,20.90
2023-03-19T15:59:56.660Z,21.00
2023-03-19T16:02:33.112Z,20.90
2023-03-19T16:05:24.920Z,20.30
2023-03-19T16:07:59.165Z,20.00
2023-03-19T16:10:29.243Z,19.90
2023-03-19T16:12:57.193Z,19.70
2023-03-19T16:15:46.269Z,19.30
2023-03-19T16:18:16.777Z,18.80
2023-03-19T16:20:47.769Z,18.40
2023-03-19T16:23:18.158Z,17.60
2023-03-19T16:25:47.270Z,17.30
2023-03-19T16:28:18.551Z,17.30
2023-03-19T16:30:49.433Z,17.00
2023-03-19T16:33:18.777Z,16.60
2023-03-19T16:35:46.354Z,16.30
2023-03-19T16:38:38.676Z,16.20
2023-03-19T16:41:23.425Z,16.00
2023-03-19T16:43:53.810Z,15.70
2023-03-19T16:46:21.831Z,15.80
2023-03-19T16:48:49.049Z,15.80
2023-03-19T16:51:20.190Z,15.70
2023-03-19T16:53:49.300Z,15.60
2023-03-19T16:56:18.870Z,15.60
2023-03-19T16:58:48.541Z,15.50
2023-03-19T17:01:24.541Z,15.40
2023-03-19T17:03:53.107Z,15.30
2023-03-19T17:06:22.358Z,15.30
2023-03-19T17:08:50.845Z,15.20
2023-03-19T17:11:34.794Z,15.20
2023-03-19T17:14:03.482Z,15.20
2023-03-19T17:16:34.637Z,15.00
2023-03-19T17:19:03.632Z,15.00
2023-03-19T17:21:33.772Z,15.00
2023-03-19T17:24:22.449Z,14.90
2023-03-19T17:26:50.037Z,14.80
2023-03-19T17:29:20.604Z,14.80
2023-03-19T17:31:49.504Z,14.70
2023-03-19T17:34:37.362Z,14.70
2023-03-19T17:37:13.575Z,14.70
2023-03-19T17:39:42.651Z,14.70
2023-03-19T17:42:24.837Z,14.60
2023-03-19T17:44:52.369Z,14.60
2023-03-19T17:47:23.821Z,14.60
2023-03-19T17:49:51.295Z,14.60
2023-03-19T17:52:19.947Z,14.60
2023-03-19T17:54:48.614Z,14.50
2023-03-19T17:57:28.462Z,14.50
2023-03-19T17:59:57.231Z,14.60
2023-03-19T18:02:32.515Z,14.60
2023-03-19T18:05:00.735Z,14.50
2023-03-19T18:07:28.055Z,14.40
2023-03-19T18:09:55.479Z,14.50
2023-03-19T18:12:22.753Z,14.50
2023-03-19T18:14:50.058Z,14.50
2023-03-19T18:17:19.050Z,14.50
2023-03-19T18:19:50.788Z,14.50
2023-03-19T18:22:21.858Z,14.50
2023-03-19T18:24:49.247Z,14.50
2023-03-19T18:27:16.510Z,14.60
2023-03-19T18:29:46.357Z,14.60
2023-03-19T18:32:21.732Z,14.60
2023-03-19T18:34:49.283Z,14.50
2023-03-19T18:37:18.501Z,14.50
2023-03-19T18:39:45.936Z,14.60
2023-03-19T18:42:14.719Z,14.70
2023-03-19T18:44:42.671Z,14.60
2023-03-19T18:47:14.615Z,14.60
2023-03-19T18:49:42.840Z,14.50
2023-03-19T18:52:23.422Z,14.50
2023-03-19T18:54:52.472Z,14.50
2023-03-19T18:57:20.694Z,14.50
2023-03-19T18:59:47.951Z,14.50
2023-03-19T19:02:32.524Z,14.40
2023-03-19T19:05:01.116Z,14.30
2023-03-19T19:07:28.353Z,14.20
2023-03-19T19:09:55.693Z,14.20
2023-03-19T19:12:23.357Z,14.10
2023-03-19T19:14:50.785Z,14.00
2023-03-19T19:17:24.806Z,14.00
2023-03-19T19:19:52.328Z,13.90
2023-03-19T19:22:21.197Z,13.80
2023-03-19T19:24:48.491Z,13.80
2023-03-19T19:27:22.457Z,13.90
2023-03-19T19:29:50.954Z,13.60
2023-03-19T19:32:27.369Z,13.40
2023-03-19T19:34:55.286Z,13.40
2023-03-19T19:37:23.781Z,13.50
2023-03-19T19:39:54.607Z,13.50
2023-03-19T19:42:23.605Z,13.50
2023-03-19T19:44:55.887Z,13.40
2023-03-19T19:47:26.097Z,13.50
2023-03-19T19:49:53.463Z,13.60
2023-03-19T19:52:21.060Z,13.50
2023-03-19T19:54:48.945Z,13.50
2023-03-19T19:57:19.462Z,13.50
2023-03-19T19:59:46.962Z,13.50
2023-03-19T20:02:31.676Z,13.40
2023-03-19T20:04:59.355Z,13.30
2023-03-19T20:07:27.367Z,13.30
2023-03-19T20:09:54.695Z,13.40
2023-03-19T20:12:28.323Z,13.40
2023-03-19T20:14:55.942Z,13.40
2023-03-19T20:17:23.233Z,13.40
2023-03-19T20:19:51.989Z,13.30
2023-03-19T20:22:20.266Z,13.20
2023-03-19T20:24:50.990Z,13.20
2023-03-19T20:27:25.707Z,13.20
2023-03-19T20:29:54.330Z,13.20
2023-03-19T20:32:38.529Z,12.80
2023-03-19T20:35:16.678Z,12.70
2023-03-19T20:37:44.917Z,12.80
2023-03-19T20:40:18.372Z,12.90
2023-03-19T20:42:50.149Z,12.80
2023-03-19T20:45:28.488Z,12.90
2023-03-19T20:47:58.814Z,12.90
2023-03-19T20:50:31.471Z,12.90
2023-03-19T20:53:03.959Z,13.00
2023-03-19T20:55:34.613Z,13.00
2023-03-19T20:58:10.041Z,12.50
2023-03-19T21:00:40.071Z,12.40
2023-03-19T21:03:16.632Z,12.50
2023-03-19T21:05:44.849Z,12.50
2023-03-19T21:08:37.723Z,12.70
2023-03-19T21:11:11.573Z,12.40
2023-03-19T21:13:39.281Z,12.20
2023-03-19T21:16:09.721Z,12.20
2023-03-19T21:18:38.276Z,12.20
2023-03-19T21:21:06.348Z,12.20
2023-03-19T21:23:40.728Z,12.30
2023-03-19T21:26:18.340Z,12.30
2023-03-19T21:28:48.134Z,12.40
2023-03-19T21:31:19.521Z,12.30
2023-03-19T21:33:49.308Z,12.40
2023-03-19T21:36:17.843Z,12.40
2023-03-19T21:38:47.068Z,12.60
2023-03-19T21:41:26.571Z,12.60
2023-03-19T21:43:57.715Z,12.20
2023-03-19T21:46:27.841Z,12.10
2023-03-19T21:48:57.124Z,12.00
2023-03-19T21:51:33.274Z,12.00
2023-03-19T21:54:00.905Z,11.90
2023-03-19T21:56:33.679Z,12.00
2023-03-19T21:59:11.847Z,12.10
2023-03-19T22:01:39.621Z,12.10
2023-03-19T22:04:07.753Z,12.20
2023-03-19T22:06:37.227Z,12.20
2023-03-19T22:09:05.231Z,12.40
2023-03-19T22:11:36.159Z,12.50
2023-03-19T22:14:33.643Z,12.30
2023-03-19T22:17:01.965Z,12.20
2023-03-19T22:19:29.942Z,12.10
2023-03-19T22:21:58.349Z,12.10
2023-03-19T22:24:27.107Z,12.20
2023-03-19T22:26:58.127Z,12.10
2023-03-19T22:29:25.945Z,12.20
2023-03-19T22:31:55.240Z,12.10
2023-03-19T22:34:26.028Z,12.20
2023-03-19T22:36:55.885Z,12.30
2023-03-19T22:39:23.568Z,12.20
2023-03-19T22:41:52.027Z,12.20
2023-03-19T22:44:33.055Z,12.00
2023-03-19T22:47:02.893Z,11.80
2023-03-19T22:49:31.612Z,11.80
2023-03-19T22:51:59.447Z,11.70
2023-03-19T22:54:26.930Z,11.70
2023-03-19T22:56:54.315Z,11.70
2023-03-19T22:59:21.895Z,11.80
2023-03-19T23:01:49.605Z,11.90
2023-03-19T23:04:26.568Z,12.00
2023-03-19T23:06:56.106Z,12.00
2023-03-19T23:09:26.633Z,12.10
2023-03-19T23:11:54.713Z,12.10
2023-03-19T23:14:30.097Z,12.10
2023-03-19T23:17:03.614Z,12.30
2023-03-19T23:19:36.937Z,12.10
2023-03-19T23:22:06.778Z,11.70
2023-03-19T23:24:35.479Z,11.70
2023-03-19T23:27:03.522Z,11.70
2023-03-19T23:29:44.139Z,11.90
2023-03-19T23:32:12.111Z,11.90
2023-03-19T23:34:55.873Z,12.00
2023-03-19T23:37:26.688Z,12.00
2023-03-19T23:39:54.136Z,11.90
2023-03-19T23:42:29.134Z,11.90
2023-03-19T23:44:59.759Z,12.00
2023-03-19T23:47:29.117Z,11.90
2023-03-19T23:49:57.097Z,11.70
2023-03-19T23:54:49.131Z,11.70
2023-03-19T23:57:17.246Z,11.30
2023-03-19T23:59:48.296Z,11.30
